Time;durP1;ratioP1;P1;durP2;ratioP2;P2;SDS_P1;SDS_P2;PMS_P1;PMS_P2;Temp;Humidity;BMP_temperature;BMP_pressure;BME280_temperature;BME280_humidity;BME280_pressure;Samples;Min_cycle;Max_cycle;Signal;HPM_P1;HPM_P2
2021/03/06 00:02:08;;;;;;;6.95;3.30;;;;;;;12.82;70.41;101706.66;5009292;28;20041;-68
2021/03/06 00:04:37;;;;;;;6.32;3.17;;;;;;;12.83;70.76;101691.66;5009875;28;20042;-67
2021/03/06 00:07:04;;;;;;;7.70;3.33;;;;;;;12.83;70.97;101691.66;5009662;28;20040;-68
2021/03/06 00:09:32;;;;;;;5.68;2.78;;;;;;;12.87;71.37;101715.59;5009429;28;20072;-67
2021/03/06 00:11:59;;;;;;;7.57;3.80;;;;;;;12.91;71.52;101713.91;5009741;28;20049;-67
2021/03/06 00:14:26;;;;;;;6.32;2.95;;;;;;;12.95;71.63;101713.09;5008821;28;20046;-67
2021/03/06 00:16:53;;;;;;;5.63;2.95;;;;;;;12.99;71.58;101736.19;5009773;28;20121;-67
2021/03/06 00:19:20;;;;;;;11.75;3.47;;;;;;;13.05;71.66;101752.22;5009367;28;20180;-67
2021/03/06 00:21:48;;;;;;;5.40;2.45;;;;;;;13.12;71.68;101772.69;5009670;28;20066;-66
2021/03/06 00:24:16;;;;;;;4.65;3.13;;;;;;;13.15;71.59;101778.06;5009162;28;20038;-67
2021/03/06 00:26:43;;;;;;;5.43;3.15;;;;;;;13.18;71.49;101793.16;5009405;28;20065;-67
2021/03/06 00:29:10;;;;;;;8.23;3.53;;;;;;;13.15;71.60;101781.63;5009154;28;20084;-67
2021/03/06 00:31:38;;;;;;;9.52;3.85;;;;;;;13.26;71.56;101803.06;4991827;28;20038;-67
2021/03/06 00:34:06;;;;;;;8.20;2.90;;;;;;;13.29;71.50;101794.28;5010697;28;20045;-68
2021/03/06 00:36:33;;;;;;;4.57;2.63;;;;;;;13.34;71.42;101803.22;5012788;28;20578;-67
2021/03/06 00:39:01;;;;;;;6.65;2.80;;;;;;;13.48;70.28;101801.75;5012436;28;20499;-67
2021/03/06 00:41:29;;;;;;;5.68;2.72;;;;;;;13.53;69.28;101800.97;5012193;28;20038;-67
2021/03/06 00:43:56;;;;;;;8.43;4.00;;;;;;;13.59;69.13;101804.66;5013080;28;20030;-67
2021/03/06 00:46:23;;;;;;;7.15;3.40;;;;;;;13.67;69.21;101795.06;5012020;28;20058;-67
2021/03/06 00:48:50;;;;;;;7.13;3.00;;;;;;;13.70;69.36;101798.69;5012919;28;20054;-67
2021/03/06 00:51:18;;;;;;;7.60;3.92;;;;;;;13.77;69.37;101789.06;5012161;28;20042;-67
2021/03/06 00:53:45;;;;;;;5.55;2.40;;;;;;;13.79;69.38;101801.50;5012681;28;20561;-67
2021/03/06 00:56:13;;;;;;;6.15;3.03;;;;;;;13.83;69.43;101802.47;4994803;28;20132;-68
2021/03/06 00:58:41;;;;;;;7.25;2.92;;;;;;;13.81;69.57;101814.78;5012716;28;20289;-67
2021/03/06 01:01:08;;;;;;;6.63;3.17;;;;;;;13.78;69.68;101804.13;5011895;28;20034;-67
2021/03/06 01:03:36;;;;;;;8.23;3.30;;;;;;;13.72;69.96;101814.63;5011902;28;20045;-67
2021/03/06 01:06:03;;;;;;;10.20;3.42;;;;;;;13.70;70.11;101814.59;4995005;28;20083;-67
2021/03/06 01:08:31;;;;;;;5.93;2.70;;;;;;;13.67;70.05;101817.19;5011844;28;20062;-67
2021/03/06 01:10:58;;;;;;;8.55;3.92;;;;;;;13.61;70.00;101814.41;5012091;28;20520;-67
2021/03/06 01:13:27;;;;;;;8.07;3.17;;;;;;;13.57;70.12;101813.47;5011759;28;20057;-67
2021/03/06 01:15:54;;;;;;;6.10;3.15;;;;;;;13.48;70.42;101807.06;5011615;28;20052;-66
2021/03/06 01:18:21;;;;;;;9.52;3.67;;;;;;;13.42;70.62;101813.13;5011181;28;20581;-67
2021/03/06 01:20:48;;;;;;;6.93;3.30;;;;;;;13.34;70.87;101811.19;5012252;28;20494;-67
2021/03/06 01:23:16;;;;;;;4.97;3.08;;;;;;;13.32;70.97;101824.44;5011558;28;20056;-67
2021/03/06 01:25:43;;;;;;;8.50;3.60;;;;;;;13.39;70.87;101823.66;5011851;28;20049;-67
2021/03/06 01:28:10;;;;;;;6.70;3.22;;;;;;;13.38;70.82;101832.50;5011635;28;20073;-67
2021/03/06 01:30:39;;;;;;;6.05;3.25;;;;;;;13.40;70.87;101825.47;5011697;28;20061;-67
2021/03/06 01:33:07;;;;;;;8.57;4.05;;;;;;;13.36;70.92;101838.63;5011353;28;20088;-67
2021/03/06 01:35:34;;;;;;;7.93;4.45;;;;;;;13.25;70.50;101848.13;5011038;28;20088;-67
2021/03/06 01:38:01;;;;;;;12.60;4.80;;;;;;;13.15;70.14;101834.66;5011648;28;20052;-67
2021/03/06 01:40:30;;;;;;;9.57;4.30;;;;;;;13.20;70.02;101821.47;5010855;28;20137;-67
2021/03/06 01:42:58;;;;;;;9.20;4.03;;;;;;;13.17;70.07;101821.44;5011531;28;20463;-67
2021/03/06 01:45:26;;;;;;;10.43;4.13;;;;;;;13.16;70.08;101822.28;5010505;28;20049;-67
2021/03/06 01:47:54;;;;;;;8.95;4.00;;;;;;;13.17;70.35;101824.09;5011245;28;20576;-67
2021/03/06 01:50:25;;;;;;;7.32;3.47;;;;;;;13.21;70.61;101811.78;5004723;28;20519;-67
2021/03/06 01:52:53;;;;;;;6.32;3.33;;;;;;;13.19;70.47;101805.56;5011325;28;20065;-67
2021/03/06 01:55:23;;;;;;;6.88;3.15;;;;;;;13.23;70.55;101803.00;5010743;28;20053;-67
2021/03/06 01:57:51;;;;;;;9.77;3.80;;;;;;;13.21;70.89;101790.56;5011237;28;20108;-67
2021/03/06 02:00:20;;;;;;;7.85;4.03;;;;;;;13.22;71.09;101790.59;5010562;28;20117;-67
2021/03/06 02:02:49;;;;;;;9.50;3.45;;;;;;;13.25;71.15;101793.34;5010981;28;20030;-67
2021/03/06 02:05:19;;;;;;;7.78;3.30;;;;;;;13.23;71.35;101784.44;5010605;28;20066;-67
2021/03/06 02:07:46;;;;;;;6.53;3.53;;;;;;;13.22;71.38;101787.94;5011080;28;20495;-67
2021/03/06 02:10:15;;;;;;;8.02;3.60;;;;;;;13.20;71.71;101791.41;5010589;28;20487;-67
2021/03/06 02:12:54;;;;;;;7.63;4.03;;;;;;;13.23;71.88;101792.41;5011290;28;20395;-67
2021/03/06 02:15:28;;;;;;;7.00;3.42;;;;;;;13.21;72.14;101804.72;5010397;28;20133;-67
2021/03/06 02:18:01;;;;;;;6.68;3.28;;;;;;;13.22;72.15;101809.16;5010968;28;20518;-67
2021/03/06 02:20:55;;;;;;;7.10;3.60;;;;;;;13.24;72.04;101802.16;5009787;28;20045;-67
2021/03/06 02:23:50;;;;;;;6.57;3.50;;;;;;;13.24;72.29;101810.09;5010053;28;20034;-66
2021/03/06 02:26:39;;;;;;;8.60;3.83;;;;;;;13.26;72.29;101811.00;5010427;28;20042;-67
2021/03/06 02:29:46;;;;;;;7.85;3.78;;;;;;;13.28;72.32;101813.69;5010331;28;20045;-67
2021/03/06 02:32:19;;;;;;;8.85;4.68;;;;;;;13.24;72.40;101807.44;4949717;28;20398;-67
2021/03/06 02:34:50;;;;;;;7.53;3.70;;;;;;;13.25;72.45;101814.56;4949901;28;20564;-67
2021/03/06 02:37:22;;;;;;;7.28;3.88;;;;;;;13.26;72.50;101811.00;4983825;28;20038;-67
2021/03/06 02:39:55;;;;;;;6.78;4.50;;;;;;;13.27;72.67;101812.81;5010570;28;20042;-67
2021/03/06 02:42:25;;;;;;;8.75;4.13;;;;;;;13.32;72.68;101816.47;5010192;28;20034;-67
2021/03/06 02:44:57;;;;;;;7.03;4.00;;;;;;;13.37;72.66;101819.22;5010644;28;20044;-67
2021/03/06 02:47:25;;;;;;;10.27;3.90;;;;;;;13.39;72.51;101820.16;5009673;28;20030;-67
2021/03/06 02:49:53;;;;;;;8.25;3.63;;;;;;;13.42;72.54;101817.53;5009719;28;20041;-67
2021/03/06 02:52:20;;;;;;;11.05;4.28;;;;;;;13.50;72.37;101824.81;5010085;28;20430;-67
2021/03/06 02:54:48;;;;;;;7.05;3.92;;;;;;;13.56;72.16;101810.78;5010570;28;20037;-67
2021/03/06 02:57:28;;;;;;;8.20;4.28;;;;;;;13.67;71.91;101781.78;5009962;28;20125;-67
2021/03/06 03:00:05;;;;;;;7.07;4.18;;;;;;;13.67;71.96;101739.31;5010212;28;20123;-67
2021/03/06 03:02:43;;;;;;;9.25;4.75;;;;;;;13.65;71.84;101686.25;4992027;28;20495;-67
2021/03/06 03:05:19;;;;;;;6.25;2.67;;;;;;;13.66;71.83;101690.66;4993136;28;20048;-67
2021/03/06 03:07:52;;;;;;;6.22;3.50;;;;;;;13.74;71.48;101733.28;5010310;28;20502;-67
2021/03/06 03:10:22;;;;;;;6.97;3.60;;;;;;;13.80;71.45;101763.47;5009375;28;20092;-67
2021/03/06 03:12:55;;;;;;;10.68;3.15;;;;;;;13.83;71.41;101765.31;5010415;28;20096;-67
2021/03/06 03:15:30;;;;;;;7.35;3.50;;;;;;;13.85;71.26;101777.72;5009439;28;20041;-67
2021/03/06 03:17:58;;;;;;;6.72;2.90;;;;;;;13.85;71.41;101790.09;5010348;28;20495;-67
2021/03/06 03:20:37;;;;;;;7.18;3.50;;;;;;;13.91;71.38;101783.13;5009292;28;20061;-67
2021/03/06 03:23:13;;;;;;;6.53;3.50;;;;;;;13.92;71.29;101790.22;5009900;28;20048;-67
2021/03/06 03:25:41;;;;;;;5.60;3.17;;;;;;;13.92;71.05;101795.53;5009525;28;20116;-67
2021/03/06 03:28:10;;;;;;;5.40;3.50;;;;;;;13.91;71.01;101801.72;5009699;28;20104;-67
2021/03/06 03:30:41;;;;;;;7.28;3.80;;;;;;;13.94;70.91;101803.53;5010267;28;20517;-67
2021/03/06 03:33:11;;;;;;;8.63;3.97;;;;;;;13.95;71.00;101805.34;5009289;28;20656;-67
2021/03/06 03:35:40;;;;;;;8.18;4.07;;;;;;;13.95;71.03;101805.34;5010126;28;20448;-67
2021/03/06 03:38:09;;;;;;;9.20;3.40;;;;;;;13.94;70.98;101811.50;5009068;28;20100;-67
2021/03/06 03:40:37;;;;;;;6.95;4.10;;;;;;;14.00;70.98;101814.28;5009935;28;20456;-68
2021/03/06 03:43:05;;;;;;;8.05;3.17;;;;;;;14.01;70.98;101800.13;5009566;28;20038;-67
2021/03/06 03:45:33;;;;;;;6.63;4.10;;;;;;;14.00;71.03;101801.00;5009318;28;20113;-67
2021/03/06 03:48:02;;;;;;;8.82;3.58;;;;;;;14.02;70.86;101806.34;5010105;28;20121;-67
2021/03/06 03:50:29;;;;;;;6.93;3.35;;;;;;;14.01;71.19;101800.13;5009515;28;20038;-67
2021/03/06 03:52:57;;;;;;;7.00;3.83;;;;;;;14.02;71.17;101793.97;5009474;28;20030;-67
2021/03/06 03:55:25;;;;;;;7.22;3.10;;;;;;;14.10;71.02;101810.03;5009305;28;20521;-68
2021/03/06 03:57:53;;;;;;;7.28;3.60;;;;;;;14.05;71.07;101801.97;4992532;28;20442;-67
2021/03/06 04:00:22;;;;;;;6.60;3.55;;;;;;;14.11;70.99;101807.38;5009375;28;20133;-67
2021/03/06 04:02:49;;;;;;;8.73;4.15;;;;;;;14.04;71.26;101820.56;5009453;28;20038;-67
2021/03/06 04:05:18;;;;;;;7.63;3.67;;;;;;;14.06;71.09;101814.38;5009276;28;20391;-67
2021/03/06 04:07:47;;;;;;;6.97;3.47;;;;;;;14.07;71.16;101812.63;4991980;28;20042;-68
2021/03/06 04:10:16;;;;;;;6.55;3.10;;;;;;;14.04;71.19;101800.22;5012786;28;20096;-67
2021/03/06 04:12:44;;;;;;;6.32;3.38;;;;;;;14.07;71.17;101810.88;5013295;28;20034;-67
2021/03/06 04:15:13;;;;;;;8.57;3.60;;;;;;;14.10;71.08;101820.66;5012867;28;20250;-67
2021/03/06 04:17:40;;;;;;;8.57;4.63;;;;;;;14.07;71.07;101816.19;5013259;28;20606;-67
2021/03/06 04:20:10;;;;;;;5.65;3.30;;;;;;;14.12;71.28;101827.78;5012606;28;20048;-67
2021/03/06 04:22:38;;;;;;;7.10;4.03;;;;;;;14.07;71.65;101829.47;5012863;28;20121;-67
2021/03/06 04:25:07;;;;;;;9.65;4.03;;;;;;;14.07;71.56;101823.25;5012980;28;20042;-67
2021/03/06 04:27:34;;;;;;;8.23;3.97;;;;;;;14.04;71.85;101821.44;5013087;28;20129;-67
2021/03/06 04:30:02;;;;;;;6.70;3.17;;;;;;;14.04;71.96;101816.13;5012898;28;20545;-67
2021/03/06 04:32:29;;;;;;;7.40;3.42;;;;;;;14.06;72.08;101826.75;5012480;28;20037;-68
2021/03/06 04:34:56;;;;;;;10.98;4.35;;;;;;;14.13;71.38;101816.28;5013161;28;20038;-67
2021/03/06 04:37:24;;;;;;;8.20;3.65;;;;;;;14.14;71.55;101818.09;5012014;28;20556;-67
2021/03/06 04:39:52;;;;;;;7.10;3.88;;;;;;;14.17;71.64;101841.16;5012510;28;20126;-67
2021/03/06 04:42:19;;;;;;;6.13;3.25;;;;;;;14.13;71.71;101840.19;5012448;28;20380;-67
2021/03/06 04:44:46;;;;;;;10.40;4.85;;;;;;;14.11;71.66;101849.00;5012327;28;20061;-67
2021/03/06 04:47:14;;;;;;;8.20;3.42;;;;;;;14.11;71.92;101849.88;5012291;28;20125;-68
2021/03/06 04:49:41;;;;;;;8.32;3.80;;;;;;;14.11;71.86;101847.22;5012693;28;20042;-68
2021/03/06 04:52:08;;;;;;;6.53;2.88;;;;;;;14.16;71.90;101847.34;5011969;28;20030;-67
2021/03/06 04:54:36;;;;;;;8.77;3.78;;;;;;;14.23;71.85;101844.81;5012707;28;20041;-67
2021/03/06 04:57:05;;;;;;;7.55;2.70;;;;;;;14.38;71.67;101833.56;5012252;28;20475;-68
2021/03/06 04:59:32;;;;;;;8.43;3.80;;;;;;;14.45;71.54;101835.47;5012455;28;20037;-68
2021/03/06 05:01:59;;;;;;;5.85;3.17;;;;;;;14.54;71.19;101840.94;4994867;28;20085;-68
2021/03/06 05:04:26;;;;;;;6.03;3.42;;;;;;;14.63;70.88;101837.56;5011805;28;20133;-68
2021/03/06 05:06:54;;;;;;;4.93;2.88;;;;;;;14.67;70.80;101831.41;5011534;28;20404;-68
2021/03/06 05:09:22;;;;;;;8.48;3.90;;;;;;;14.70;70.87;101845.63;5011865;28;20038;-68
2021/03/06 05:11:49;;;;;;;8.65;3.83;;;;;;;14.74;71.04;101849.25;5012356;28;20044;-68
2021/03/06 05:14:18;;;;;;;10.00;4.53;;;;;;;14.80;70.91;101841.38;5011480;28;20458;-67
2021/03/06 05:16:45;;;;;;;7.43;3.53;;;;;;;14.77;71.17;101841.31;5012063;28;20447;-68
2021/03/06 05:19:12;;;;;;;6.35;3.45;;;;;;;14.82;71.02;101852.94;5011674;28;20120;-67
2021/03/06 05:21:39;;;;;;;8.43;4.10;;;;;;;14.88;70.87;101861.00;4994812;28;20679;-67
2021/03/06 05:24:07;;;;;;;8.25;3.70;;;;;;;14.95;70.42;101870.88;5011965;28;20120;-67
2021/03/06 05:26:35;;;;;;;7.63;3.67;;;;;;;14.95;70.76;101868.22;5011776;28;20053;-68
2021/03/06 05:29:02;;;;;;;8.40;3.80;;;;;;;14.96;70.73;101866.44;5012110;28;20589;-67
2021/03/06 05:31:30;;;;;;;8.27;3.40;;;;;;;15.02;70.62;101863.88;5011165;28;20049;-67
2021/03/06 05:33:58;;;;;;;8.35;4.53;;;;;;;14.99;70.76;101864.72;5011716;28;20124;-66
2021/03/06 05:36:25;;;;;;;5.47;3.25;;;;;;;15.02;70.63;101858.56;5011339;28;20034;-67
2021/03/06 05:38:52;;;;;;;8.32;3.47;;;;;;;15.05;70.46;101854.16;5011516;28;20042;-67
2021/03/06 05:41:20;;;;;;;9.52;3.80;;;;;;;15.07;70.50;101855.09;5011497;28;20132;-67
2021/03/06 05:43:47;;;;;;;6.82;3.45;;;;;;;15.10;70.71;101860.44;5011869;28;20053;-67
2021/03/06 05:46:15;;;;;;;6.68;3.90;;;;;;;15.13;70.33;101857.84;5010839;28;20442;-68
2021/03/06 05:48:43;;;;;;;6.32;3.50;;;;;;;15.21;70.66;101865.03;5011713;28;20168;-67
2021/03/06 05:51:12;;;;;;;7.78;3.90;;;;;;;15.30;70.16;101857.16;5010846;28;20050;-67
2021/03/06 05:53:40;;;;;;;10.43;4.05;;;;;;;15.39;69.60;101852.88;5011628;28;20117;-67
2021/03/06 05:56:10;;;;;;;6.28;3.00;;;;;;;15.48;69.65;101846.78;5011100;28;20118;-68
2021/03/06 05:58:37;;;;;;;7.55;2.90;;;;;;;15.51;69.33;101846.81;5011329;28;20124;-67
2021/03/06 06:01:05;;;;;;;5.47;2.90;;;;;;;15.54;69.19;101853.13;5011520;28;20124;-67
2021/03/06 06:03:33;;;;;;;7.82;3.08;;;;;;;15.59;69.37;101855.84;5011106;28;20053;-67
2021/03/06 06:06:01;;;;;;;4.70;2.47;;;;;;;15.65;69.08;101844.38;5011198;28;20042;-67
2021/03/06 06:08:33;;;;;;;9.93;3.40;;;;;;;15.62;69.21;101834.56;5010587;28;20042;-67
2021/03/06 06:11:00;;;;;;;8.73;3.15;;;;;;;15.72;68.77;101857.78;5010901;28;20046;-67
2021/03/06 06:13:27;;;;;;;6.63;3.13;;;;;;;15.81;68.73;101872.97;5010767;28;20053;-67
2021/03/06 06:15:54;;;;;;;9.25;3.22;;;;;;;15.91;68.38;101861.53;5011014;28;20121;-67
2021/03/06 06:18:22;;;;;;;9.07;3.33;;;;;;;15.93;68.00;101865.13;5010255;28;20659;-67
2021/03/06 06:20:49;;;;;;;6.70;2.90;;;;;;;15.97;67.89;101861.59;5011343;28;20033;-68
2021/03/06 06:23:18;;;;;;;6.63;3.33;;;;;;;16.06;67.95;101868.81;5009516;28;20562;-68
2021/03/06 06:25:45;;;;;;;8.38;4.55;;;;;;;16.08;67.33;101865.28;5010806;28;20069;-68
2021/03/06 06:28:12;;;;;;;21.00;16.27;;;;;;;16.16;66.90;101878.69;5010357;28;20044;-68
2021/03/06 06:30:40;;;;;;;15.05;9.73;;;;;;;16.21;66.86;101875.19;5010789;28;20683;-68
2021/03/06 06:33:07;;;;;;;23.10;13.70;;;;;;;16.34;66.74;101878.91;5010261;28;20056;-69
2021/03/06 06:35:41;;;;;;;13.02;7.90;;;;;;;16.52;66.21;101872.84;5010951;28;20042;-68
2021/03/06 06:38:09;;;;;;;32.80;22.08;;;;;;;16.60;65.96;101872.06;5009429;28;20061;-68
2021/03/06 06:40:39;;;;;;;13.73;7.22;;;;;;;16.64;65.44;101868.53;5011142;28;20758;-68
2021/03/06 06:43:27;;;;;;;14.30;8.07;;;;;;;16.72;65.55;101866.84;5024637;28;20037;-69
2021/03/06 06:45:54;;;;;;;15.05;7.97;;;;;;;16.72;66.00;101869.50;4991335;28;20046;-67
2021/03/06 06:48:22;;;;;;;12.10;7.07;;;;;;;16.82;65.52;101862.44;5009956;28;20108;-68
2021/03/06 06:50:49;;;;;;;8.93;5.03;;;;;;;16.96;65.37;101867.88;5010061;28;20050;-68
2021/03/06 06:53:34;;;;;;;11.73;4.97;;;;;;;17.07;64.98;101861.72;4996898;28;20116;-68
2021/03/06 06:56:02;;;;;;;;;;;;;;;17.16;64.83;101871.59;5013371;28;20116;-68
2021/03/06 06:58:35;;;;;;;24.63;17.10;;;;;;;17.30;64.76;101869.00;5016854;28;20559;-68
2021/03/06 07:01:29;;;;;;;12.47;6.30;;;;;;;17.46;64.35;101868.19;5010104;28;20045;-68
2021/03/06 07:04:00;;;;;;;10.48;5.88;;;;;;;17.66;63.85;101884.34;5009961;28;20042;-68
2021/03/06 07:06:28;;;;;;;9.88;6.28;;;;;;;17.90;63.18;101884.47;5007700;28;20052;-68
2021/03/06 07:09:06;;;;;;;8.27;4.50;;;;;;;18.12;62.54;101880.94;5013113;28;20506;-68
2021/03/06 07:11:34;;;;;;;8.50;3.92;;;;;;;18.19;62.11;101872.06;5023727;28;20479;-68
2021/03/06 07:14:01;;;;;;;9.48;4.07;;;;;;;18.25;61.94;101881.88;5009829;28;20153;-68
2021/03/06 07:16:57;;;;;;;7.68;3.72;;;;;;;18.43;61.21;101886.38;5009251;28;20065;-68
2021/03/06 07:19:26;;;;;;;12.50;5.70;;;;;;;18.59;60.49;101893.53;5020185;28;20125;-68
2021/03/06 07:21:53;;;;;;;11.45;6.10;;;;;;;18.84;60.19;101889.97;5029715;28;20049;-67
2021/03/06 07:24:20;;;;;;;9.98;6.03;;;;;;;19.17;59.31;101883.69;5023497;28;20117;-68
2021/03/06 07:26:52;;;;;;;12.45;7.97;;;;;;;19.43;58.73;101875.59;5010257;28;20069;-68
2021/03/06 07:29:20;;;;;;;7.22;3.95;;;;;;;19.55;57.87;101858.66;5009392;28;20049;-68
2021/03/06 07:31:50;;;;;;;9.85;4.30;;;;;;;19.59;57.40;101868.47;5010049;28;20565;-68
2021/03/06 07:34:20;;;;;;;10.68;5.63;;;;;;;19.71;57.19;101881.81;5009296;28;20062;-68
2021/03/06 07:36:49;;;;;;;10.23;5.05;;;;;;;19.81;56.33;101865.69;5008429;28;20065;-68
2021/03/06 07:39:18;;;;;;;9.82;5.18;;;;;;;19.89;55.50;101858.47;5008490;28;20133;-68
2021/03/06 07:41:54;;;;;;;11.98;4.20;;;;;;;20.02;55.37;101866.50;5009505;28;20034;-68
2021/03/06 07:44:25;;;;;;;11.68;4.72;;;;;;;19.95;54.44;101870.09;5011888;28;20044;-69
2021/03/06 07:46:53;;;;;;;10.95;4.95;;;;;;;19.71;54.78;101865.72;5022920;28;20237;-68
2021/03/06 07:49:25;;;;;;;16.58;5.90;;;;;;;19.69;54.91;101860.38;5031001;28;20046;-68
2021/03/06 07:51:53;;;;;;;11.50;5.13;;;;;;;19.95;54.56;101862.94;5022031;28;20042;-69
2021/03/06 07:54:22;;;;;;;8.45;3.90;;;;;;;20.27;54.23;101873.47;5027665;28;20498;-69
2021/03/06 07:56:51;;;;;;;9.60;3.95;;;;;;;20.49;53.38;101867.09;5016544;28;20038;-69
2021/03/06 07:59:38;;;;;;;7.68;4.43;;;;;;;20.40;53.47;101864.50;5012486;28;20129;-70
2021/03/06 08:02:33;;;;;;;8.05;3.33;;;;;;;20.48;53.03;101869.81;4995859;28;20474;-69
2021/03/06 08:05:00;;;;;;;6.32;4.07;;;;;;;20.35;53.15;101879.69;5012223;28;20042;-69
2021/03/06 08:07:41;;;;;;;7.63;4.35;;;;;;;20.45;52.55;101877.84;5014424;28;20141;-68
2021/03/06 08:10:11;;;;;;;9.15;4.03;;;;;;;20.37;51.60;101864.50;5020228;28;20046;-69
2021/03/06 08:12:39;;;;;;;63.80;48.28;;;;;;;20.26;51.42;101858.28;5011772;28;20030;-69
2021/03/06 08:15:28;;;;;;;11.40;6.68;;;;;;;20.21;50.21;101862.81;5009468;28;20568;-67
2021/03/06 08:17:56;;;;;;;9.02;4.30;;;;;;;20.14;50.54;101856.59;5002051;28;20038;-68
2021/03/06 08:20:28;;;;;;;13.52;6.40;;;;;;;20.16;50.57;101853.88;5011023;28;20513;-68
2021/03/06 08:23:23;;;;;;;12.18;7.75;;;;;;;20.09;50.24;101858.38;5012026;28;20033;-68
2021/03/06 08:26:29;;;;;;;11.93;6.38;;;;;;;19.95;50.67;101854.03;4992261;28;20550;-69
2021/03/06 08:29:33;;;;;;;7.13;4.10;;;;;;;20.11;50.81;101861.94;4992023;28;20038;-69
2021/03/06 08:32:02;;;;;;;6.80;3.70;;;;;;;20.08;50.92;101883.44;5009368;28;20045;-68
2021/03/06 08:34:30;;;;;;;11.05;4.18;;;;;;;20.21;50.62;101876.22;5011287;28;20050;-68
2021/03/06 08:37:29;;;;;;;6.85;3.53;;;;;;;20.25;51.03;101880.63;5011177;28;20120;-68
2021/03/06 08:39:58;;;;;;;9.82;5.43;;;;;;;20.41;51.29;101885.06;5010094;28;20700;-68
2021/03/06 08:42:27;;;;;;;7.63;4.70;;;;;;;20.32;50.93;101871.66;5010628;28;20042;-67
2021/03/06 08:44:56;;;;;;;18.77;10.98;;;;;;;20.21;51.24;101870.84;5011082;28;20041;-68
2021/03/06 08:47:25;;;;;;;10.43;4.40;;;;;;;20.06;50.60;101877.19;5010021;28;20092;-68
2021/03/06 08:49:55;;;;;;;11.13;4.75;;;;;;;19.97;50.69;101887.94;5011417;28;20096;-67
2021/03/06 08:52:23;;;;;;;6.55;3.97;;;;;;;19.91;51.13;101901.38;5010829;28;20045;-67
2021/03/06 08:54:50;;;;;;;14.07;6.10;;;;;;;20.19;50.95;101899.44;5010409;28;20156;-68
2021/03/06 08:57:29;;;;;;;9.85;5.40;;;;;;;20.14;50.76;101890.56;4993453;28;20038;-68
2021/03/06 09:00:00;;;;;;;13.60;10.10;;;;;;;19.95;51.29;101878.13;4993949;28;20554;-68
2021/03/06 09:02:29;;;;;;;11.30;6.15;;;;;;;20.00;51.76;101877.22;5009959;28;20057;-68
2021/03/06 09:05:09;;;;;;;10.27;3.85;;;;;;;20.12;51.65;101884.28;5010878;28;20045;-68
2021/03/06 09:07:38;;;;;;;33.95;22.10;;;;;;;20.00;51.72;101877.22;5010610;28;20062;-68
2021/03/06 09:10:34;;;;;;;13.80;7.30;;;;;;;20.02;51.35;101877.22;5010798;28;20054;-68
2021/03/06 09:13:03;;;;;;;44.75;32.67;;;;;;;19.85;50.94;101888.00;4971356;28;20659;-68
2021/03/06 09:15:48;;;;;;;10.23;4.63;;;;;;;19.88;51.15;101886.22;4973297;28;1114236;-67
2021/03/06 09:18:19;;;;;;;15.20;8.50;;;;;;;19.80;51.32;101871.94;4995937;28;20072;-69
2021/03/06 09:20:53;;;;;;;13.38;8.50;;;;;;;19.71;50.89;101884.47;5011756;28;20042;-68
2021/03/06 09:23:27;;;;;;;23.00;16.60;;;;;;;19.76;51.52;101896.06;5014100;28;20103;-68
2021/03/06 09:25:55;;;;;;;15.18;8.55;;;;;;;19.74;51.72;101885.38;5011613;28;20499;-68
2021/03/06 09:28:23;;;;;;;13.48;9.63;;;;;;;19.69;52.06;101870.22;5022805;28;20034;-68
2021/03/06 09:30:52;;;;;;;45.63;32.90;;;;;;;19.67;51.87;101872.91;5017039;28;20061;-68
2021/03/06 09:33:27;;;;;;;10.93;5.15;;;;;;;19.65;51.61;101881.84;5019189;28;20429;-68
2021/03/06 09:36:00;;;;;;;7.93;3.85;;;;;;;19.85;51.66;101879.97;5031729;28;20038;-68
2021/03/06 09:38:27;;;;;;;14.30;6.65;;;;;;;20.15;51.00;101878.94;5013062;28;20422;-68
2021/03/06 09:40:55;;;;;;;14.50;6.03;;;;;;;20.17;51.13;101861.91;5012490;28;20450;-68
2021/03/06 09:43:28;;;;;;;13.15;7.35;;;;;;;20.17;51.23;101852.97;5018550;28;20095;-68
2021/03/06 09:45:58;;;;;;;10.68;4.20;;;;;;;20.21;51.28;101850.28;5023296;28;20042;-67
2021/03/06 09:48:26;;;;;;;11.35;4.28;;;;;;;20.25;51.19;101849.34;5013140;28;20056;-68
2021/03/06 09:50:55;;;;;;;9.75;3.97;;;;;;;20.34;51.11;101845.75;5015213;28;20040;-67
2021/03/06 09:53:23;;;;;;;8.98;3.58;;;;;;;20.26;50.92;101842.19;5010945;28;20046;-68
2021/03/06 09:56:06;;;;;;;9.02;4.07;;;;;;;20.43;50.78;101837.63;5016955;28;20049;-68
2021/03/06 09:58:33;;;;;;;8.65;3.80;;;;;;;20.81;50.06;101844.44;5010968;28;20137;-68
2021/03/06 10:01:19;;;;;;;9.95;3.85;;;;;;;21.21;49.35;101844.97;5011365;28;20121;-68
2021/03/06 10:03:48;;;;;;;10.18;4.70;;;;;;;21.29;48.72;101837.72;5010765;28;20058;-68
2021/03/06 10:06:19;;;;;;;11.85;3.55;;;;;;;21.18;47.83;101839.66;5010241;28;20115;-68
2021/03/06 10:08:49;;;;;;;8.90;3.40;;;;;;;21.12;48.44;101832.53;5011384;28;20399;-68
2021/03/06 10:11:17;;;;;;;7.13;3.50;;;;;;;21.17;48.58;101833.38;5011021;28;20061;-69
2021/03/06 10:13:47;;;;;;;9.70;3.08;;;;;;;21.33;48.50;101832.28;5011568;28;20397;-68
2021/03/06 10:16:14;;;;;;;10.65;4.38;;;;;;;21.54;48.29;101838.31;5010790;28;20034;-68
2021/03/06 10:18:43;;;;;;;12.30;7.28;;;;;;;21.64;47.49;101824.78;5010864;28;20509;-67
2021/03/06 10:21:15;;;;;;;11.13;3.60;;;;;;;21.81;47.07;101803.91;4992717;28;20125;-68
2021/03/06 10:23:43;;;;;;;7.85;3.28;;;;;;;21.77;45.89;101804.88;5010761;28;20037;-68
2021/03/06 10:26:31;;;;;;;8.68;3.67;;;;;;;21.93;45.60;101810.00;5010140;28;20108;-68
2021/03/06 10:29:00;;;;;;;9.60;3.97;;;;;;;21.96;45.19;101810.03;5004535;28;20451;-68
2021/03/06 10:31:32;;;;;;;8.07;3.30;;;;;;;22.00;44.89;101800.97;5009753;28;23061;-69
2021/03/06 10:34:14;;;;;;;6.57;3.60;;;;;;;22.11;43.94;101785.59;5014454;28;20573;-69
2021/03/06 10:36:41;;;;;;;9.30;5.90;;;;;;;21.93;44.93;101789.41;5018307;28;20056;-69
2021/03/06 10:39:14;;;;;;;7.60;3.88;;;;;;;21.90;45.02;101789.47;5025164;28;20045;-69
2021/03/06 10:41:41;;;;;;;12.85;5.07;;;;;;;21.84;45.33;101779.69;5022382;28;20151;-69
2021/03/06 10:44:09;;;;;;;9.75;4.35;;;;;;;21.82;45.57;101772.53;5009532;28;20040;-69
2021/03/06 10:46:36;;;;;;;7.93;3.30;;;;;;;21.87;46.33;101768.88;5016394;28;20083;-69
2021/03/06 10:49:06;;;;;;;9.82;3.75;;;;;;;21.94;45.98;101766.97;5021611;28;20132;-69
2021/03/06 10:51:43;;;;;;;7.95;3.20;;;;;;;21.99;45.86;101765.13;5020664;28;20045;-70
2021/03/06 10:54:11;;;;;;;10.48;5.20;;;;;;;22.06;46.78;101748.00;5025932;28;20030;-69
2021/03/06 10:56:39;;;;;;;6.80;3.55;;;;;;;22.01;46.85;101747.19;5028456;28;20038;-69
2021/03/06 10:59:06;;;;;;;9.25;4.18;;;;;;;22.04;47.50;101748.94;4999450;28;20553;-68
2021/03/06 11:01:45;;;;;;;8.93;3.55;;;;;;;22.08;47.85;101735.41;5010132;28;20058;-68
2021/03/06 11:04:25;;;;;;;11.85;4.35;;;;;;;22.12;48.06;101738.97;5021245;28;20124;-68
2021/03/06 11:06:57;;;;;;;9.90;4.32;;;;;;;22.14;48.43;101743.38;5030361;28;20040;-70
2021/03/06 11:09:28;;;;;;;10.52;4.13;;;;;;;22.08;47.67;101734.53;5018676;28;20037;-69
2021/03/06 11:11:56;;;;;;;12.20;4.45;;;;;;;21.91;47.96;101740.16;5015942;28;20038;-68
2021/03/06 11:14:25;;;;;;;7.97;3.85;;;;;;;21.96;48.19;101732.03;5012313;28;20133;-69
2021/03/06 11:16:52;;;;;;;9.60;3.33;;;;;;;21.99;48.14;101738.25;5011152;28;20176;-69
2021/03/06 11:19:19;;;;;;;13.57;4.47;;;;;;;22.16;48.51;101732.59;5015370;28;20115;-69
2021/03/06 11:21:48;;;;;;;12.93;4.97;;;;;;;22.18;48.51;101710.16;5044262;28;20041;-68
2021/03/06 11:24:14;;;;;;;10.35;4.18;;;;;;;22.09;49.57;101725.53;5019335;28;20048;-68
2021/03/06 11:26:41;;;;;;;10.63;4.65;;;;;;;22.10;49.59;101708.50;5011483;28;20129;-68
2021/03/06 11:29:09;;;;;;;18.05;5.28;;;;;;;22.15;49.74;101714.69;5009882;28;20042;-68
2021/03/06 11:31:37;;;;;;;12.02;5.53;;;;;;;22.26;50.00;101718.06;5021072;28;20046;-67
2021/03/06 11:34:04;;;;;;;10.25;5.40;;;;;;;22.29;49.51;101709.06;5010990;28;20041;-68
2021/03/06 11:36:31;;;;;;;9.05;4.50;;;;;;;22.28;49.19;101694.72;5025676;28;20069;-68
2021/03/06 11:39:00;;;;;;;11.82;4.82;;;;;;;22.42;49.42;101710.63;5016307;28;20121;-68